sensor_id;sensor_type;location;lat;lon;timestamp;P1;durP1;ratioP1;P2;durP2;ratioP2
10957;SDS011;5531;42.570;23.676;2023-05-13T00:02:08;3.33;;;2.60;;
10957;SDS011;5531;42.570;23.676;2023-05-13T00:04:37;4.82;;;2.92;;
10957;SDS011;5531;42.570;23.676;2023-05-13T00:07:06;3.42;;;2.50;;
10957;SDS011;5531;42.570;23.676;2023-05-13T00:09:37;3.53;;;2.33;;
10957;SDS011;5531;42.570;23.676;2023-05-13T00:12:06;2.30;;;2.00;;
10957;SDS011;5531;42.570;23.676;2023-05-13T00:14:34;2.30;;;2.10;;
10957;SDS011;5531;42.570;23.676;2023-05-13T00:17:03;2.33;;;1.90;;
10957;SDS011;5531;42.570;23.676;2023-05-13T00:19:31;2.38;;;2.00;;
10957;SDS011;5531;42.570;23.676;2023-05-13T00:22:00;2.40;;;2.08;;
10957;SDS011;5531;42.570;23.676;2023-05-13T00:24:28;2.20;;;2.00;;
10957;SDS011;5531;42.570;23.676;2023-05-13T00:27:00;3.22;;;2.10;;
10957;SDS011;5531;42.570;23.676;2023-05-13T00:29:28;2.47;;;2.10;;
10957;SDS011;5531;42.570;23.676;2023-05-13T00:31:57;3.45;;;2.00;;
10957;SDS011;5531;42.570;23.676;2023-05-13T00:34:25;4.18;;;2.20;;
10957;SDS011;5531;42.570;23.676;2023-05-13T00:36:54;2.42;;;1.95;;
10957;SDS011;5531;42.570;23.676;2023-05-13T00:39:22;2.10;;;1.88;;
10957;SDS011;5531;42.570;23.676;2023-05-13T00:41:51;2.88;;;1.98;;
10957;SDS011;5531;42.570;23.676;2023-05-13T00:44:22;2.63;;;1.92;;
10957;SDS011;5531;42.570;23.676;2023-05-13T00:46:51;2.17;;;2.00;;
10957;SDS011;5531;42.570;23.676;2023-05-13T00:49:20;2.20;;;2.00;;
10957;SDS011;5531;42.570;23.676;2023-05-13T00:51:49;2.38;;;1.98;;
10957;SDS011;5531;42.570;23.676;2023-05-13T00:54:19;2.13;;;1.95;;
10957;SDS011;5531;42.570;23.676;2023-05-13T00:56:48;2.15;;;1.92;;
10957;SDS011;5531;42.570;23.676;2023-05-13T00:59:18;2.00;;;1.80;;
10957;SDS011;5531;42.570;23.676;2023-05-13T01:01:51;3.35;;;1.70;;
10957;SDS011;5531;42.570;23.676;2023-05-13T01:04:24;2.47;;;1.83;;
10957;SDS011;5531;42.570;23.676;2023-05-13T01:06:57;2.35;;;1.77;;
10957;SDS011;5531;42.570;23.676;2023-05-13T01:09:38;1.60;;;1.50;;
10957;SDS011;5531;42.570;23.676;2023-05-13T01:12:10;2.00;;;1.80;;
10957;SDS011;5531;42.570;23.676;2023-05-13T01:14:41;1.90;;;1.70;;
10957;SDS011;5531;42.570;23.676;2023-05-13T01:17:16;2.10;;;1.90;;
10957;SDS011;5531;42.570;23.676;2023-05-13T01:19:46;1.90;;;1.70;;
10957;SDS011;5531;42.570;23.676;2023-05-13T01:22:19;3.20;;;1.70;;
10957;SDS011;5531;42.570;23.676;2023-05-13T01:24:48;2.83;;;1.50;;
10957;SDS011;5531;42.570;23.676;2023-05-13T01:27:17;3.28;;;2.08;;
10957;SDS011;5531;42.570;23.676;2023-05-13T01:29:46;1.73;;;1.50;;
10957;SDS011;5531;42.570;23.676;2023-05-13T01:32:15;4.18;;;1.80;;
10957;SDS011;5531;42.570;23.676;2023-05-13T01:34:43;1.70;;;1.60;;
10957;SDS011;5531;42.570;23.676;2023-05-13T01:37:13;2.38;;;1.70;;
10957;SDS011;5531;42.570;23.676;2023-05-13T01:39:44;1.75;;;1.65;;
10957;SDS011;5531;42.570;23.676;2023-05-13T01:42:13;2.30;;;1.95;;
10957;SDS011;5531;42.570;23.676;2023-05-13T01:44:41;2.03;;;1.70;;
10957;SDS011;5531;42.570;23.676;2023-05-13T01:47:10;2.88;;;1.70;;
10957;SDS011;5531;42.570;23.676;2023-05-13T01:49:38;2.95;;;1.88;;
10957;SDS011;5531;42.570;23.676;2023-05-13T01:52:07;3.30;;;2.00;;
10957;SDS011;5531;42.570;23.676;2023-05-13T01:54:35;2.10;;;1.75;;
10957;SDS011;5531;42.570;23.676;2023-05-13T01:57:07;2.13;;;1.75;;
10957;SDS011;5531;42.570;23.676;2023-05-13T01:59:35;3.20;;;1.90;;
10957;SDS011;5531;42.570;23.676;2023-05-13T02:02:04;2.35;;;1.70;;
10957;SDS011;5531;42.570;23.676;2023-05-13T02:04:32;2.05;;;1.83;;
10957;SDS011;5531;42.570;23.676;2023-05-13T02:07:01;2.05;;;1.77;;
10957;SDS011;5531;42.570;23.676;2023-05-13T02:09:29;2.30;;;1.80;;
10957;SDS011;5531;42.570;23.676;2023-05-13T02:11:58;2.50;;;2.00;;
10957;SDS011;5531;42.570;23.676;2023-05-13T02:14:29;2.92;;;2.08;;
10957;SDS011;5531;42.570;23.676;2023-05-13T02:16:57;1.80;;;1.70;;
10957;SDS011;5531;42.570;23.676;2023-05-13T02:19:26;1.75;;;1.60;;
10957;SDS011;5531;42.570;23.676;2023-05-13T02:21:55;2.08;;;1.88;;
10957;SDS011;5531;42.570;23.676;2023-05-13T02:24:23;2.60;;;2.10;;
10957;SDS011;5531;42.570;23.676;2023-05-13T02:26:52;2.45;;;1.88;;
10957;SDS011;5531;42.570;23.676;2023-05-13T02:29:20;4.20;;;2.03;;
10957;SDS011;5531;42.570;23.676;2023-05-13T02:31:51;2.22;;;2.00;;
10957;SDS011;5531;42.570;23.676;2023-05-13T02:34:20;2.72;;;2.10;;
10957;SDS011;5531;42.570;23.676;2023-05-13T02:36:48;2.47;;;2.28;;
10957;SDS011;5531;42.570;23.676;2023-05-13T02:39:17;3.25;;;2.47;;
10957;SDS011;5531;42.570;23.676;2023-05-13T02:41:45;3.92;;;2.00;;
10957;SDS011;5531;42.570;23.676;2023-05-13T02:44:14;2.38;;;2.08;;
10957;SDS011;5531;42.570;23.676;2023-05-13T02:46:43;2.25;;;1.80;;
10957;SDS011;5531;42.570;23.676;2023-05-13T02:49:14;3.05;;;2.33;;
10957;SDS011;5531;42.570;23.676;2023-05-13T02:51:42;3.05;;;2.28;;
10957;SDS011;5531;42.570;23.676;2023-05-13T02:54:11;2.40;;;2.20;;
10957;SDS011;5531;42.570;23.676;2023-05-13T02:56:39;3.78;;;2.22;;
10957;SDS011;5531;42.570;23.676;2023-05-13T02:59:08;2.78;;;2.20;;
10957;SDS011;5531;42.570;23.676;2023-05-13T03:01:36;3.53;;;2.42;;
10957;SDS011;5531;42.570;23.676;2023-05-13T03:04:06;2.40;;;2.20;;
10957;SDS011;5531;42.570;23.676;2023-05-13T03:06:37;3.28;;;2.13;;
10957;SDS011;5531;42.570;23.676;2023-05-13T03:09:05;2.30;;;2.10;;
10957;SDS011;5531;42.570;23.676;2023-05-13T03:11:34;2.47;;;2.08;;
10957;SDS011;5531;42.570;23.676;2023-05-13T03:14:02;2.42;;;2.10;;
10957;SDS011;5531;42.570;23.676;2023-05-13T03:16:31;2.22;;;1.90;;
10957;SDS011;5531;42.570;23.676;2023-05-13T03:18:59;2.30;;;2.10;;
10957;SDS011;5531;42.570;23.676;2023-05-13T03:21:28;2.72;;;2.33;;
10957;SDS011;5531;42.570;23.676;2023-05-13T03:23:59;2.45;;;2.25;;
10957;SDS011;5531;42.570;23.676;2023-05-13T03:26:28;3.95;;;2.90;;
10957;SDS011;5531;42.570;23.676;2023-05-13T03:28:56;3.35;;;2.90;;
10957;SDS011;5531;42.570;23.676;2023-05-13T03:31:26;5.13;;;2.75;;
10957;SDS011;5531;42.570;23.676;2023-05-13T03:33:54;3.72;;;2.80;;
10957;SDS011;5531;42.570;23.676;2023-05-13T03:36:23;3.63;;;2.60;;
10957;SDS011;5531;42.570;23.676;2023-05-13T03:38:51;4.15;;;2.78;;
10957;SDS011;5531;42.570;23.676;2023-05-13T03:41:23;3.53;;;2.47;;
10957;SDS011;5531;42.570;23.676;2023-05-13T03:43:52;2.88;;;2.55;;
10957;SDS011;5531;42.570;23.676;2023-05-13T03:46:21;2.80;;;2.60;;
10957;SDS011;5531;42.570;23.676;2023-05-13T03:48:51;4.18;;;3.05;;
10957;SDS011;5531;42.570;23.676;2023-05-13T03:51:20;2.60;;;2.40;;
10957;SDS011;5531;42.570;23.676;2023-05-13T03:53:48;3.10;;;2.58;;
10957;SDS011;5531;42.570;23.676;2023-05-13T03:56:17;2.60;;;2.40;;
10957;SDS011;5531;42.570;23.676;2023-05-13T03:58:48;2.40;;;2.20;;
10957;SDS011;5531;42.570;23.676;2023-05-13T04:01:17;2.65;;;2.35;;
10957;SDS011;5531;42.570;23.676;2023-05-13T04:03:45;2.55;;;2.35;;
10957;SDS011;5531;42.570;23.676;2023-05-13T04:06:14;3.05;;;2.42;;
10957;SDS011;5531;42.570;23.676;2023-05-13T04:08:43;3.35;;;2.28;;
10957;SDS011;5531;42.570;23.676;2023-05-13T04:11:11;2.53;;;2.20;;
10957;SDS011;5531;42.570;23.676;2023-05-13T04:13:40;6.38;;;2.40;;
10957;SDS011;5531;42.570;23.676;2023-05-13T04:16:12;2.50;;;2.30;;
10957;SDS011;5531;42.570;23.676;2023-05-13T04:18:41;2.58;;;2.38;;
10957;SDS011;5531;42.570;23.676;2023-05-13T04:21:10;2.90;;;2.65;;
10957;SDS011;5531;42.570;23.676;2023-05-13T04:23:38;2.50;;;2.30;;
10957;SDS011;5531;42.570;23.676;2023-05-13T04:26:07;2.72;;;2.40;;
10957;SDS011;5531;42.570;23.676;2023-05-13T04:28:36;2.67;;;2.38;;
10957;SDS011;5531;42.570;23.676;2023-05-13T04:31:04;3.97;;;2.50;;
10957;SDS011;5531;42.570;23.676;2023-05-13T04:33:36;2.20;;;2.00;;
10957;SDS011;5531;42.570;23.676;2023-05-13T04:36:05;3.90;;;2.08;;
10957;SDS011;5531;42.570;23.676;2023-05-13T04:38:34;2.42;;;2.22;;
10957;SDS011;5531;42.570;23.676;2023-05-13T04:41:02;1.88;;;1.77;;
10957;SDS011;5531;42.570;23.676;2023-05-13T04:43:31;3.53;;;1.95;;
10957;SDS011;5531;42.570;23.676;2023-05-13T04:46:00;3.05;;;2.10;;
10957;SDS011;5531;42.570;23.676;2023-05-13T04:48:28;2.13;;;1.75;;
10957;SDS011;5531;42.570;23.676;2023-05-13T04:51:00;1.90;;;1.80;;
10957;SDS011;5531;42.570;23.676;2023-05-13T04:53:28;2.58;;;1.90;;
10957;SDS011;5531;42.570;23.676;2023-05-13T04:55:57;2.00;;;1.90;;
10957;SDS011;5531;42.570;23.676;2023-05-13T04:58:26;2.08;;;1.88;;
10957;SDS011;5531;42.570;23.676;2023-05-13T05:00:55;1.83;;;1.70;;
10957;SDS011;5531;42.570;23.676;2023-05-13T05:03:23;3.05;;;1.90;;
10957;SDS011;5531;42.570;23.676;2023-05-13T05:05:52;1.98;;;1.77;;
10957;SDS011;5531;42.570;23.676;2023-05-13T05:08:23;2.80;;;1.90;;
10957;SDS011;5531;42.570;23.676;2023-05-13T05:10:53;2.03;;;1.83;;
10957;SDS011;5531;42.570;23.676;2023-05-13T05:13:21;2.15;;;1.95;;
10957;SDS011;5531;42.570;23.676;2023-05-13T05:15:50;2.65;;;2.20;;
10957;SDS011;5531;42.570;23.676;2023-05-13T05:18:19;2.90;;;1.85;;
10957;SDS011;5531;42.570;23.676;2023-05-13T05:20:47;3.40;;;1.90;;
10957;SDS011;5531;42.570;23.676;2023-05-13T05:23:16;1.92;;;1.80;;
10957;SDS011;5531;42.570;23.676;2023-05-13T05:25:47;2.38;;;1.92;;
10957;SDS011;5531;42.570;23.676;2023-05-13T05:28:15;2.33;;;2.13;;
10957;SDS011;5531;42.570;23.676;2023-05-13T05:30:44;1.88;;;1.77;;
10957;SDS011;5531;42.570;23.676;2023-05-13T05:33:13;2.63;;;1.77;;
10957;SDS011;5531;42.570;23.676;2023-05-13T05:35:41;2.15;;;1.95;;
10957;SDS011;5531;42.570;23.676;2023-05-13T05:38:10;4.05;;;1.90;;
10957;SDS011;5531;42.570;23.676;2023-05-13T05:40:39;2.20;;;1.80;;
10957;SDS011;5531;42.570;23.676;2023-05-13T05:43:10;2.33;;;2.10;;
10957;SDS011;5531;42.570;23.676;2023-05-13T05:45:40;4.22;;;2.10;;
10957;SDS011;5531;42.570;23.676;2023-05-13T05:48:09;1.95;;;1.70;;
10957;SDS011;5531;42.570;23.676;2023-05-13T05:50:38;2.38;;;2.00;;
10957;SDS011;5531;42.570;23.676;2023-05-13T05:53:06;1.90;;;1.80;;
10957;SDS011;5531;42.570;23.676;2023-05-13T05:55:35;2.33;;;1.77;;
10957;SDS011;5531;42.570;23.676;2023-05-13T05:58:03;2.00;;;1.88;;
10957;SDS011;5531;42.570;23.676;2023-05-13T06:00:35;1.67;;;1.58;;
10957;SDS011;5531;42.570;23.676;2023-05-13T06:03:03;1.65;;;1.55;;
10957;SDS011;5531;42.570;23.676;2023-05-13T06:05:32;1.80;;;1.65;;
10957;SDS011;5531;42.570;23.676;2023-05-13T06:08:00;1.75;;;1.65;;
10957;SDS011;5531;42.570;23.676;2023-05-13T06:10:29;1.92;;;1.50;;
10957;SDS011;5531;42.570;23.676;2023-05-13T06:12:58;1.50;;;1.40;;
10957;SDS011;5531;42.570;23.676;2023-05-13T06:15:27;1.40;;;1.23;;
10957;SDS011;5531;42.570;23.676;2023-05-13T06:17:58;2.35;;;1.60;;
10957;SDS011;5531;42.570;23.676;2023-05-13T06:20:29;1.50;;;1.40;;
10957;SDS011;5531;42.570;23.676;2023-05-13T06:22:58;1.75;;;1.42;;
10957;SDS011;5531;42.570;23.676;2023-05-13T06:25:26;1.42;;;1.33;;
10957;SDS011;5531;42.570;23.676;2023-05-13T06:27:55;2.33;;;1.40;;
10957;SDS011;5531;42.570;23.676;2023-05-13T06:30:24;1.70;;;1.40;;
10957;SDS011;5531;42.570;23.676;2023-05-13T06:32:52;1.90;;;1.50;;
10957;SDS011;5531;42.570;23.676;2023-05-13T06:35:24;1.42;;;1.33;;
10957;SDS011;5531;42.570;23.676;2023-05-13T06:37:53;3.80;;;1.58;;
10957;SDS011;5531;42.570;23.676;2023-05-13T06:40:21;1.85;;;1.75;;
10957;SDS011;5531;42.570;23.676;2023-05-13T06:42:50;1.60;;;1.45;;
10957;SDS011;5531;42.570;23.676;2023-05-13T06:45:19;1.70;;;1.50;;
10957;SDS011;5531;42.570;23.676;2023-05-13T06:47:50;2.70;;;1.50;;
10957;SDS011;5531;42.570;23.676;2023-05-13T06:50:18;1.30;;;1.20;;
10957;SDS011;5531;42.570;23.676;2023-05-13T06:52:50;2.60;;;1.50;;
10957;SDS011;5531;42.570;23.676;2023-05-13T06:55:18;1.40;;;1.30;;
10957;SDS011;5531;42.570;23.676;2023-05-13T06:57:47;1.85;;;1.30;;
10957;SDS011;5531;42.570;23.676;2023-05-13T07:00:16;1.48;;;1.35;;
10957;SDS011;5531;42.570;23.676;2023-05-13T07:02:44;1.50;;;1.40;;
10957;SDS011;5531;42.570;23.676;2023-05-13T07:05:13;2.38;;;1.40;;
10957;SDS011;5531;42.570;23.676;2023-05-13T07:07:42;1.73;;;1.52;;
10957;SDS011;5531;42.570;23.676;2023-05-13T07:10:13;2.58;;;1.75;;
10957;SDS011;5531;42.570;23.676;2023-05-13T07:12:41;2.03;;;1.80;;
10957;SDS011;5531;42.570;23.676;2023-05-13T07:15:10;2.03;;;1.75;;
10957;SDS011;5531;42.570;23.676;2023-05-13T07:17:39;2.45;;;1.50;;
10957;SDS011;5531;42.570;23.676;2023-05-13T07:20:08;2.67;;;1.60;;
10957;SDS011;5531;42.570;23.676;2023-05-13T07:22:37;2.33;;;1.60;;
10957;SDS011;5531;42.570;23.676;2023-05-13T07:25:06;3.65;;;1.85;;
10957;SDS011;5531;42.570;23.676;2023-05-13T07:27:37;2.30;;;1.52;;
10957;SDS011;5531;42.570;23.676;2023-05-13T07:30:06;2.30;;;1.70;;
10957;SDS011;5531;42.570;23.676;2023-05-13T07:32:35;4.03;;;1.70;;
10957;SDS011;5531;42.570;23.676;2023-05-13T07:35:04;2.00;;;1.75;;
10957;SDS011;5531;42.570;23.676;2023-05-13T07:37:33;2.08;;;1.88;;
10957;SDS011;5531;42.570;23.676;2023-05-13T07:40:03;2.45;;;2.25;;
10957;SDS011;5531;42.570;23.676;2023-05-13T07:42:32;1.92;;;1.60;;
10957;SDS011;5531;42.570;23.676;2023-05-13T07:45:03;3.63;;;1.70;;
10957;SDS011;5531;42.570;23.676;2023-05-13T07:47:32;1.60;;;1.50;;
10957;SDS011;5531;42.570;23.676;2023-05-13T07:50:01;2.00;;;1.80;;
10957;SDS011;5531;42.570;23.676;2023-05-13T07:52:29;1.88;;;1.67;;
10957;SDS011;5531;42.570;23.676;2023-05-13T07:54:59;2.00;;;1.65;;
10957;SDS011;5531;42.570;23.676;2023-05-13T07:57:27;1.77;;;1.67;;
10957;SDS011;5531;42.570;23.676;2023-05-13T07:59:56;1.90;;;1.63;;
10957;SDS011;5531;42.570;23.676;2023-05-13T08:02:27;3.97;;;1.83;;
10957;SDS011;5531;42.570;23.676;2023-05-13T08:04:58;3.45;;;2.50;;
10957;SDS011;5531;42.570;23.676;2023-05-13T08:07:27;1.80;;;1.70;;
10957;SDS011;5531;42.570;23.676;2023-05-13T08:09:56;2.05;;;1.75;;
10957;SDS011;5531;42.570;23.676;2023-05-13T08:12:24;2.67;;;1.92;;
10957;SDS011;5531;42.570;23.676;2023-05-13T08:14:53;2.42;;;1.80;;
10957;SDS011;5531;42.570;23.676;2023-05-13T08:17:21;1.65;;;1.55;;
10957;SDS011;5531;42.570;23.676;2023-05-13T08:19:52;1.70;;;1.60;;
10957;SDS011;5531;42.570;23.676;2023-05-13T08:22:21;1.80;;;1.70;;
10957;SDS011;5531;42.570;23.676;2023-05-13T08:24:50;2.65;;;2.08;;
10957;SDS011;5531;42.570;23.676;2023-05-13T08:27:18;2.08;;;1.88;;
10957;SDS011;5531;42.570;23.676;2023-05-13T08:29:47;2.05;;;1.88;;
10957;SDS011;5531;42.570;23.676;2023-05-13T08:32:15;1.80;;;1.70;;
10957;SDS011;5531;42.570;23.676;2023-05-13T08:34:44;3.25;;;1.80;;
10957;SDS011;5531;42.570;23.676;2023-05-13T08:37:15;2.13;;;1.80;;
10957;SDS011;5531;42.570;23.676;2023-05-13T08:39:44;3.75;;;1.92;;
10957;SDS011;5531;42.570;23.676;2023-05-13T08:42:12;1.80;;;1.70;;
10957;SDS011;5531;42.570;23.676;2023-05-13T08:44:43;2.25;;;2.03;;
10957;SDS011;5531;42.570;23.676;2023-05-13T08:47:13;2.05;;;1.85;;
10957;SDS011;5531;42.570;23.676;2023-05-13T08:49:43;3.03;;;1.90;;
10957;SDS011;5531;42.570;23.676;2023-05-13T08:52:15;2.03;;;1.60;;
10957;SDS011;5531;42.570;23.676;2023-05-13T08:54:44;2.78;;;2.00;;
10957;SDS011;5531;42.570;23.676;2023-05-13T08:57:13;2.47;;;1.83;;
10957;SDS011;5531;42.570;23.676;2023-05-13T08:59:42;2.42;;;1.98;;
10957;SDS011;5531;42.570;23.676;2023-05-13T09:02:10;3.00;;;1.80;;
10957;SDS011;5531;42.570;23.676;2023-05-13T09:04:39;2.38;;;1.75;;
10957;SDS011;5531;42.570;23.676;2023-05-13T09:07:08;1.92;;;1.60;;
10957;SDS011;5531;42.570;23.676;2023-05-13T09:09:40;3.05;;;2.08;;
10957;SDS011;5531;42.570;23.676;2023-05-13T09:12:08;3.03;;;1.73;;
10957;SDS011;5531;42.570;23.676;2023-05-13T09:14:37;3.05;;;2.00;;
10957;SDS011;5531;42.570;23.676;2023-05-13T09:17:06;2.58;;;2.10;;
10957;SDS011;5531;42.570;23.676;2023-05-13T09:19:35;2.50;;;2.13;;
10957;SDS011;5531;42.570;23.676;2023-05-13T09:22:03;2.47;;;1.80;;
10957;SDS011;5531;42.570;23.676;2023-05-13T09:24:32;1.95;;;1.80;;
10957;SDS011;5531;42.570;23.676;2023-05-13T09:27:03;2.97;;;1.75;;
10957;SDS011;5531;42.570;23.676;2023-05-13T09:29:32;2.78;;;1.90;;
10957;SDS011;5531;42.570;23.676;2023-05-13T09:32:05;2.72;;;1.70;;
10957;SDS011;5531;42.570;23.676;2023-05-13T09:34:37;3.15;;;1.63;;
10957;SDS011;5531;42.570;23.676;2023-05-13T09:37:06;3.25;;;1.60;;
10957;SDS011;5531;42.570;23.676;2023-05-13T09:39:37;1.77;;;1.67;;
10957;SDS011;5531;42.570;23.676;2023-05-13T09:42:12;1.92;;;1.70;;
10957;SDS011;5531;42.570;23.676;2023-05-13T09:44:42;2.30;;;1.60;;
10957;SDS011;5531;42.570;23.676;2023-05-13T09:47:11;2.60;;;1.80;;
10957;SDS011;5531;42.570;23.676;2023-05-13T09:49:41;2.30;;;1.90;;
10957;SDS011;5531;42.570;23.676;2023-05-13T09:52:10;1.70;;;1.50;;
10957;SDS011;5531;42.570;23.676;2023-05-13T09:54:38;2.08;;;1.75;;
10957;SDS011;5531;42.570;23.676;2023-05-13T09:57:07;2.40;;;1.80;;
10957;SDS011;5531;42.570;23.676;2023-05-13T09:59:42;2.03;;;1.70;;
10957;SDS011;5531;42.570;23.676;2023-05-13T10:02:11;2.60;;;1.70;;
10957;SDS011;5531;42.570;23.676;2023-05-13T10:04:40;1.70;;;1.60;;
10957;SDS011;5531;42.570;23.676;2023-05-13T10:07:09;2.22;;;1.58;;
10957;SDS011;5531;42.570;23.676;2023-05-13T10:09:38;1.70;;;1.55;;
10957;SDS011;5531;42.570;23.676;2023-05-13T10:12:08;2.35;;;1.88;;
10957;SDS011;5531;42.570;23.676;2023-05-13T10:14:37;1.60;;;1.50;;
10957;SDS011;5531;42.570;23.676;2023-05-13T10:17:09;2.00;;;1.70;;
10957;SDS011;5531;42.570;23.676;2023-05-13T10:19:38;1.60;;;1.50;;
10957;SDS011;5531;42.570;23.676;2023-05-13T10:22:07;1.77;;;1.67;;
10957;SDS011;5531;42.570;23.676;2023-05-13T10:24:35;1.92;;;1.70;;
10957;SDS011;5531;42.570;23.676;2023-05-13T10:27:05;1.50;;;1.40;;
10957;SDS011;5531;42.570;23.676;2023-05-13T10:29:34;2.72;;;1.60;;
10957;SDS011;5531;42.570;23.676;2023-05-13T10:32:05;2.65;;;1.75;;
10957;SDS011;5531;42.570;23.676;2023-05-13T10:34:37;2.17;;;1.70;;
10957;SDS011;5531;42.570;23.676;2023-05-13T10:37:17;1.60;;;1.50;;
10957;SDS011;5531;42.570;23.676;2023-05-13T10:40:00;2.72;;;1.63;;
10957;SDS011;5531;42.570;23.676;2023-05-13T10:42:41;3.60;;;1.55;;
10957;SDS011;5531;42.570;23.676;2023-05-13T10:45:10;2.53;;;1.52;;
10957;SDS011;5531;42.570;23.676;2023-05-13T10:47:39;2.10;;;1.45;;
10957;SDS011;5531;42.570;23.676;2023-05-13T10:50:20;2.00;;;1.88;;
10957;SDS011;5531;42.570;23.676;2023-05-13T10:52:51;1.58;;;1.48;;
10957;SDS011;5531;42.570;23.676;2023-05-13T10:55:22;2.90;;;2.30;;
10957;SDS011;5531;42.570;23.676;2023-05-13T10:58:02;2.85;;;1.70;;
10957;SDS011;5531;42.570;23.676;2023-05-13T11:00:31;1.92;;;1.50;;
10957;SDS011;5531;42.570;23.676;2023-05-13T11:03:07;2.58;;;1.65;;
10957;SDS011;5531;42.570;23.676;2023-05-13T11:05:40;1.50;;;1.40;;
10957;SDS011;5531;42.570;23.676;2023-05-13T11:08:11;2.75;;;2.25;;
10957;SDS011;5531;42.570;23.676;2023-05-13T11:10:40;2.20;;;1.50;;
10957;SDS011;5531;42.570;23.676;2023-05-13T11:13:21;3.50;;;1.88;;
10957;SDS011;5531;42.570;23.676;2023-05-13T11:15:52;1.77;;;1.63;;
10957;SDS011;5531;42.570;23.676;2023-05-13T11:18:28;1.90;;;1.70;;
10957;SDS011;5531;42.570;23.676;2023-05-13T11:21:06;2.17;;;1.65;;
10957;SDS011;5531;42.570;23.676;2023-05-13T11:23:49;3.17;;;1.70;;
10957;SDS011;5531;42.570;23.676;2023-05-13T11:26:17;1.70;;;1.60;;
10957;SDS011;5531;42.570;23.676;2023-05-13T11:28:53;2.58;;;1.83;;
10957;SDS011;5531;42.570;23.676;2023-05-13T11:31:22;2.38;;;1.80;;
10957;SDS011;5531;42.570;23.676;2023-05-13T11:36:37;1.80;;;1.70;;
10957;SDS011;5531;42.570;23.676;2023-05-13T11:39:09;2.20;;;1.70;;
10957;SDS011;5531;42.570;23.676;2023-05-13T11:41:42;1.80;;;1.70;;
10957;SDS011;5531;42.570;23.676;2023-05-13T11:44:12;2.13;;;1.92;;
10957;SDS011;5531;42.570;23.676;2023-05-13T11:46:50;2.15;;;1.88;;
10957;SDS011;5531;42.570;23.676;2023-05-13T11:49:29;1.83;;;1.70;;
10957;SDS011;5531;42.570;23.676;2023-05-13T11:52:00;1.98;;;1.60;;
10957;SDS011;5531;42.570;23.676;2023-05-13T11:54:39;1.70;;;1.60;;
10957;SDS011;5531;42.570;23.676;2023-05-13T11:57:13;2.10;;;1.67;;
10957;SDS011;5531;42.570;23.676;2023-05-13T11:59:47;2.28;;;1.45;;
10957;SDS011;5531;42.570;23.676;2023-05-13T12:02:19;1.70;;;1.60;;
10957;SDS011;5531;42.570;23.676;2023-05-13T12:04:48;3.85;;;1.70;;
10957;SDS011;5531;42.570;23.676;2023-05-13T12:07:24;2.17;;;1.60;;
10957;SDS011;5531;42.570;23.676;2023-05-13T12:09:54;1.70;;;1.60;;
10957;SDS011;5531;42.570;23.676;2023-05-13T12:12:23;2.47;;;1.80;;
10957;SDS011;5531;42.570;23.676;2023-05-13T12:14:52;1.73;;;1.63;;
10957;SDS011;5531;42.570;23.676;2023-05-13T12:17:21;2.28;;;1.90;;
10957;SDS011;5531;42.570;23.676;2023-05-13T12:22:37;1.98;;;1.60;;
10957;SDS011;5531;42.570;23.676;2023-05-13T12:28:04;1.85;;;1.65;;
10957;SDS011;5531;42.570;23.676;2023-05-13T12:30:33;2.30;;;2.00;;
10957;SDS011;5531;42.570;23.676;2023-05-13T12:33:02;2.53;;;1.80;;
10957;SDS011;5531;42.570;23.676;2023-05-13T12:35:33;2.08;;;1.70;;
10957;SDS011;5531;42.570;23.676;2023-05-13T12:38:04;1.88;;;1.77;;
10957;SDS011;5531;42.570;23.676;2023-05-13T12:40:33;2.20;;;1.95;;
10957;SDS011;5531;42.570;23.676;2023-05-13T12:43:01;1.98;;;1.77;;
10957;SDS011;5531;42.570;23.676;2023-05-13T12:45:31;1.88;;;1.70;;
10957;SDS011;5531;42.570;23.676;2023-05-13T12:48:00;1.90;;;1.80;;
10957;SDS011;5531;42.570;23.676;2023-05-13T12:50:29;3.25;;;1.88;;
10957;SDS011;5531;42.570;23.676;2023-05-13T12:52:57;1.85;;;1.58;;
10957;SDS011;5531;42.570;23.676;2023-05-13T12:55:29;2.35;;;1.70;;
10957;SDS011;5531;42.570;23.676;2023-05-13T12:58:01;1.88;;;1.70;;
10957;SDS011;5531;42.570;23.676;2023-05-13T13:00:30;4.00;;;2.15;;
10957;SDS011;5531;42.570;23.676;2023-05-13T13:02:59;1.80;;;1.70;;
10957;SDS011;5531;42.570;23.676;2023-05-13T13:05:28;2.67;;;1.75;;
10957;SDS011;5531;42.570;23.676;2023-05-13T13:07:56;1.80;;;1.70;;
10957;SDS011;5531;42.570;23.676;2023-05-13T13:10:25;2.03;;;1.90;;
10957;SDS011;5531;42.570;23.676;2023-05-13T13:12:56;2.38;;;2.00;;
10957;SDS011;5531;42.570;23.676;2023-05-13T13:15:25;2.72;;;2.00;;
10957;SDS011;5531;42.570;23.676;2023-05-13T13:17:54;1.80;;;1.67;;
10957;SDS011;5531;42.570;23.676;2023-05-13T13:20:22;2.33;;;1.73;;
10957;SDS011;5531;42.570;23.676;2023-05-13T13:22:51;2.70;;;1.90;;
10957;SDS011;5531;42.570;23.676;2023-05-13T13:25:20;2.00;;;1.80;;
10957;SDS011;5531;42.570;23.676;2023-05-13T13:27:49;2.33;;;1.95;;
10957;SDS011;5531;42.570;23.676;2023-05-13T13:30:20;2.35;;;1.92;;
10957;SDS011;5531;42.570;23.676;2023-05-13T13:32:48;3.03;;;1.90;;
10957;SDS011;5531;42.570;23.676;2023-05-13T13:35:17;2.20;;;2.00;;
10957;SDS011;5531;42.570;23.676;2023-05-13T13:37:45;2.92;;;1.88;;
10957;SDS011;5531;42.570;23.676;2023-05-13T13:40:14;1.98;;;1.70;;
10957;SDS011;5531;42.570;23.676;2023-05-13T13:42:44;1.70;;;1.60;;
10957;SDS011;5531;42.570;23.676;2023-05-13T13:45:12;1.85;;;1.75;;
10957;SDS011;5531;42.570;23.676;2023-05-13T13:47:43;3.50;;;3.20;;
10957;SDS011;5531;42.570;23.676;2023-05-13T13:50:12;2.40;;;2.00;;
10957;SDS011;5531;42.570;23.676;2023-05-13T13:52:40;3.08;;;1.90;;
10957;SDS011;5531;42.570;23.676;2023-05-13T13:55:09;1.90;;;1.80;;
10957;SDS011;5531;42.570;23.676;2023-05-13T13:57:39;3.22;;;1.92;;
10957;SDS011;5531;42.570;23.676;2023-05-13T14:00:08;2.00;;;1.80;;
10957;SDS011;5531;42.570;23.676;2023-05-13T14:02:36;2.45;;;1.80;;
10957;SDS011;5531;42.570;23.676;2023-05-13T14:05:08;2.90;;;2.13;;
10957;SDS011;5531;42.570;23.676;2023-05-13T14:07:37;3.88;;;1.98;;
10957;SDS011;5531;42.570;23.676;2023-05-13T14:10:06;3.35;;;2.47;;
10957;SDS011;5531;42.570;23.676;2023-05-13T14:12:36;3.42;;;2.00;;
10957;SDS011;5531;42.570;23.676;2023-05-13T14:15:06;2.22;;;1.80;;
10957;SDS011;5531;42.570;23.676;2023-05-13T14:17:34;2.78;;;1.90;;
10957;SDS011;5531;42.570;23.676;2023-05-13T14:20:03;1.95;;;1.70;;
10957;SDS011;5531;42.570;23.676;2023-05-13T14:22:37;1.90;;;1.70;;
10957;SDS011;5531;42.570;23.676;2023-05-13T14:25:05;4.13;;;1.95;;
10957;SDS011;5531;42.570;23.676;2023-05-13T14:27:34;3.15;;;2.08;;
10957;SDS011;5531;42.570;23.676;2023-05-13T14:30:03;3.30;;;2.03;;
10957;SDS011;5531;42.570;23.676;2023-05-13T14:32:32;2.63;;;1.90;;
10957;SDS011;5531;42.570;23.676;2023-05-13T14:35:01;2.13;;;1.90;;
10957;SDS011;5531;42.570;23.676;2023-05-13T14:37:29;2.05;;;1.85;;
10957;SDS011;5531;42.570;23.676;2023-05-13T14:40:01;2.22;;;2.00;;
10957;SDS011;5531;42.570;23.676;2023-05-13T14:42:29;2.42;;;2.05;;
10957;SDS011;5531;42.570;23.676;2023-05-13T14:44:58;2.00;;;1.80;;
10957;SDS011;5531;42.570;23.676;2023-05-13T14:47:26;2.10;;;1.83;;
10957;SDS011;5531;42.570;23.676;2023-05-13T14:49:55;1.92;;;1.70;;
10957;SDS011;5531;42.570;23.676;2023-05-13T14:52:24;2.40;;;1.75;;
10957;SDS011;5531;42.570;23.676;2023-05-13T14:54:52;2.22;;;1.98;;
10957;SDS011;5531;42.570;23.676;2023-05-13T14:57:23;2.35;;;1.70;;
10957;SDS011;5531;42.570;23.676;2023-05-13T14:59:52;2.95;;;1.90;;
10957;SDS011;5531;42.570;23.676;2023-05-13T15:02:20;2.08;;;1.88;;
10957;SDS011;5531;42.570;23.676;2023-05-13T15:04:49;2.63;;;1.92;;
10957;SDS011;5531;42.570;23.676;2023-05-13T15:07:19;2.00;;;1.80;;
10957;SDS011;5531;42.570;23.676;2023-05-13T15:09:47;2.47;;;1.95;;
10957;SDS011;5531;42.570;23.676;2023-05-13T15:12:16;2.88;;;1.92;;